Time;durP1;ratioP1;P1;durP2;ratioP2;P2;SDS_P1;SDS_P2;PMS_P1;PMS_P2;Temp;Humidity;BMP_temperature;BMP_pressure;BME280_temperature;BME280_humidity;BME280_pressure;Samples;Min_cycle;Max_cycle;Signal;HPM_P1;HPM_P2
2022/10/15 00:00:10;;;;;;;6.47;4.03;;;14.20;99.90;;;;;;4824090;29;20197;-85
2022/10/15 00:02:36;;;;;;;5.43;4.05;;;14.30;99.90;;;;;;4824552;29;20622;-85
2022/10/15 00:05:03;;;;;;;5.50;4.07;;;14.20;99.90;;;;;;4825187;29;20262;-85
2022/10/15 00:07:28;;;;;;;7.75;4.40;;;14.20;99.90;;;;;;4824623;29;20182;-85
2022/10/15 00:09:54;;;;;;;4.28;3.88;;;14.20;99.90;;;;;;4825133;29;20330;-84
2022/10/15 00:12:20;;;;;;;6.57;4.65;;;14.20;99.90;;;;;;4808799;29;20182;-86
2022/10/15 00:14:45;;;;;;;5.68;4.07;;;14.20;99.90;;;;;;4825049;29;20166;-85
2022/10/15 00:17:11;;;;;;;5.45;4.10;;;14.20;99.90;;;;;;4825199;29;20182;-85
2022/10/15 00:19:37;;;;;;;5.40;4.25;;;14.20;99.90;;;;;;4825072;29;20261;-85
2022/10/15 00:22:04;;;;;;;6.47;4.22;;;14.20;99.90;;;;;;4825024;29;20379;-84
2022/10/15 00:24:30;;;;;;;4.82;4.07;;;14.10;99.90;;;;;;4824244;29;20213;-83
2022/10/15 00:26:57;;;;;;;5.90;4.10;;;14.20;99.90;;;;;;4808171;29;20196;-84
2022/10/15 00:29:24;;;;;;;8.30;4.25;;;14.10;99.90;;;;;;4824827;29;20268;-84
2022/10/15 00:32:03;;;;;;;5.47;4.43;;;14.10;99.90;;;;;;4808072;29;20193;-83
2022/10/15 00:34:29;;;;;;;5.32;4.28;;;14.10;99.90;;;;;;4806605;29;20175;-84
2022/10/15 00:36:55;;;;;;;5.88;4.32;;;14.10;99.90;;;;;;4809721;29;20307;-84
2022/10/15 00:39:21;;;;;;;6.55;4.20;;;14.10;99.90;;;;;;4812889;29;20268;-84
2022/10/15 00:41:47;;;;;;;5.20;4.30;;;14.00;99.90;;;;;;4827244;29;20182;-85
2022/10/15 00:44:28;;;;;;;6.15;4.50;;;14.10;99.90;;;;;;4826620;29;20810;-85
2022/10/15 00:47:00;;;;;;;6.05;4.40;;;14.10;99.90;;;;;;4827097;29;20182;-84
2022/10/15 00:49:39;;;;;;;7.10;3.95;;;14.10;99.90;;;;;;4827062;29;20241;-84
2022/10/15 00:52:07;;;;;;;8.00;4.47;;;14.00;99.90;;;;;;4827992;29;20186;-84
2022/10/15 00:54:41;;;;;;;5.53;4.40;;;14.00;99.90;;;;;;4826621;29;20669;-84
2022/10/15 00:57:12;;;;;;;6.00;4.10;;;14.00;99.90;;;;;;4827179;29;20361;-84
2022/10/15 00:59:42;;;;;;;6.40;4.47;;;14.00;99.90;;;;;;4828041;29;20181;-84
2022/10/15 01:02:10;;;;;;;5.03;4.38;;;14.00;99.90;;;;;;4811824;29;20189;-85
2022/10/15 01:04:36;;;;;;;5.72;3.92;;;14.10;99.90;;;;;;4811866;29;20225;-85
2022/10/15 01:07:02;;;;;;;5.43;4.05;;;14.10;99.90;;;;;;4811673;29;20189;-85
2022/10/15 01:09:28;;;;;;;5.55;4.00;;;14.10;99.90;;;;;;4827637;29;20186;-85
2022/10/15 01:11:55;;;;;;;5.63;4.28;;;14.10;99.90;;;;;;4826430;29;20198;-83
2022/10/15 01:14:43;;;;;;;4.63;4.13;;;14.10;99.90;;;;;;4811403;29;20647;-84
2022/10/15 01:17:28;;;;;;;7.18;4.30;;;14.10;99.90;;;;;;4827768;29;20249;-84
2022/10/15 01:20:38;;;;;;;5.65;4.28;;;14.10;99.90;;;;;;4827198;29;20186;-85
2022/10/15 01:23:42;;;;;;;5.35;3.85;;;14.10;99.90;;;;;;4826875;29;20198;-86
2022/10/15 01:26:31;;;;;;;5.30;3.92;;;14.10;99.90;;;;;;4806888;29;20210;-85
2022/10/15 01:28:57;;;;;;;6.53;4.32;;;14.10;99.90;;;;;;4825716;29;20610;-85
2022/10/15 01:31:48;;;;;;;6.60;4.38;;;14.00;99.90;;;;;;4827531;29;20190;-84
2022/10/15 01:34:28;;;;;;;6.82;4.03;;;14.10;99.90;;;;;;4827336;29;20265;-85
2022/10/15 01:37:06;;;;;;;4.22;3.83;;;14.00;99.90;;;;;;4826257;29;20174;-85
2022/10/15 01:42:17;;;;;;;5.90;4.55;;;14.00;99.90;;;;;;4830888;29;20225;-87
2022/10/15 01:44:51;;;;;;;5.70;4.28;;;14.00;99.90;;;;;;4845278;29;20217;-85
2022/10/15 01:47:27;;;;;;;5.75;4.20;;;14.00;99.90;;;;;;4828496;29;20537;-84
2022/10/15 01:49:55;;;;;;;4.93;3.78;;;14.00;99.90;;;;;;4845510;29;20173;-85
2022/10/15 01:52:31;;;;;;;5.82;4.13;;;14.00;99.90;;;;;;4845609;29;20178;-84
2022/10/15 01:54:59;;;;;;;4.70;3.97;;;14.00;99.90;;;;;;4828786;29;20181;-85
2022/10/15 01:57:29;;;;;;;7.13;4.65;;;14.00;99.90;;;;;;4828700;29;20193;-84
2022/10/15 01:59:56;;;;;;;4.60;3.67;;;14.00;99.90;;;;;;4844658;29;20523;-84
2022/10/15 02:02:22;;;;;;;5.82;4.20;;;14.00;99.90;;;;;;4829022;29;20185;-85
2022/10/15 02:04:48;;;;;;;4.72;3.85;;;14.00;99.90;;;;;;4845203;29;20209;-85
2022/10/15 02:07:25;;;;;;;6.15;4.50;;;14.00;99.90;;;;;;4844074;29;20181;-85
2022/10/15 02:09:57;;;;;;;6.93;4.25;;;14.00;99.90;;;;;;4844304;29;20189;-86
2022/10/15 02:12:49;;;;;;;4.68;3.97;;;14.00;99.90;;;;;;4844094;29;20220;-83
2022/10/15 02:15:34;;;;;;;4.82;3.67;;;14.00;99.90;;;;;;4844131;29;20326;-86
2022/10/15 02:18:43;;;;;;;5.65;4.32;;;14.00;99.90;;;;;;4826942;29;20170;-84
2022/10/15 02:21:37;;;;;;;4.60;3.90;;;14.00;99.90;;;;;;4827382;29;20190;-85
2022/10/15 02:24:10;;;;;;;4.47;4.00;;;14.00;99.90;;;;;;4843837;29;20250;-86
2022/10/15 02:26:37;;;;;;;4.55;3.83;;;14.00;99.90;;;;;;4828115;29;20555;-86
2022/10/15 02:29:06;;;;;;;6.57;4.35;;;14.00;99.90;;;;;;4844637;29;20561;-84
2022/10/15 02:31:34;;;;;;;6.20;4.22;;;13.90;99.90;;;;;;4845013;29;20544;-85
2022/10/15 02:34:08;;;;;;;4.35;3.88;;;13.90;99.90;;;;;;4844457;29;20198;-85
2022/10/15 02:36:35;;;;;;;6.45;3.70;;;13.90;99.90;;;;;;4821765;29;20563;-86
2022/10/15 02:39:03;;;;;;;6.13;3.65;;;13.90;99.90;;;;;;4826882;29;20686;-85
2022/10/15 02:41:29;;;;;;;4.82;4.10;;;13.80;99.90;;;;;;4810530;29;20241;-86
2022/10/15 02:43:56;;;;;;;7.03;4.18;;;13.80;99.90;;;;;;4844071;29;20549;-84
2022/10/15 02:46:22;;;;;;;6.15;4.45;;;13.80;99.90;;;;;;4827949;29;20197;-84
2022/10/15 02:48:49;;;;;;;7.55;4.07;;;13.70;99.90;;;;;;4844795;29;20549;-85
2022/10/15 02:51:15;;;;;;;6.18;4.03;;;13.70;99.90;;;;;;4828044;29;20193;-85
2022/10/15 02:53:41;;;;;;;6.30;4.60;;;13.70;99.90;;;;;;4856937;29;20180;-85
2022/10/15 02:56:07;;;;;;;8.50;4.68;;;13.70;99.90;;;;;;4846116;29;20232;-84
2022/10/15 02:58:33;;;;;;;8.95;4.38;;;13.70;99.90;;;;;;4846726;29;20189;-84
2022/10/15 03:00:59;;;;;;;5.57;4.28;;;13.70;99.90;;;;;;4844391;29;20192;-85
2022/10/15 03:03:27;;;;;;;6.47;4.60;;;13.70;99.90;;;;;;4827931;29;20668;-85
2022/10/15 03:05:53;;;;;;;6.35;4.68;;;13.70;99.90;;;;;;4844226;29;20173;-85
2022/10/15 03:08:18;;;;;;;5.90;4.22;;;13.70;99.90;;;;;;4844497;29;20533;-86
2022/10/15 03:10:45;;;;;;;7.05;4.60;;;13.70;99.90;;;;;;4844045;29;20696;-85
2022/10/15 03:13:11;;;;;;;6.70;4.63;;;13.70;99.90;;;;;;4842552;29;20189;-85
2022/10/15 03:15:37;;;;;;;7.30;4.55;;;13.60;99.90;;;;;;4827764;29;20191;-86
2022/10/15 03:18:03;;;;;;;4.88;4.32;;;13.60;99.90;;;;;;4843084;29;20238;-85
2022/10/15 03:20:29;;;;;;;6.00;4.07;;;13.70;99.90;;;;;;4843810;29;20189;-85
2022/10/15 03:22:56;;;;;;;5.53;4.47;;;13.60;99.90;;;;;;4827866;29;20517;-85
2022/10/15 03:25:22;;;;;;;5.90;4.07;;;13.60;99.90;;;;;;4827387;29;20205;-85
2022/10/15 03:27:48;;;;;;;6.95;4.53;;;13.60;99.90;;;;;;4830619;29;20192;-85
2022/10/15 03:30:14;;;;;;;7.10;4.80;;;13.60;99.90;;;;;;4843897;29;20185;-84
2022/10/15 03:32:40;;;;;;;5.88;5.00;;;13.60;99.90;;;;;;4843946;29;20261;-85
2022/10/15 03:35:06;;;;;;;5.95;4.53;;;13.60;99.90;;;;;;4843916;29;20177;-84
2022/10/15 03:37:33;;;;;;;5.55;4.47;;;13.60;99.90;;;;;;4843726;29;20177;-84
2022/10/15 03:39:58;;;;;;;5.22;4.20;;;13.60;99.90;;;;;;4842741;29;20315;-85
2022/10/15 03:42:24;;;;;;;5.85;4.68;;;13.60;99.90;;;;;;4843382;29;20284;-85
2022/10/15 03:44:50;;;;;;;5.22;4.07;;;13.60;99.90;;;;;;4842405;29;20220;-84
2022/10/15 03:47:15;;;;;;;6.40;4.75;;;13.60;99.90;;;;;;4841649;29;20200;-85
2022/10/15 03:49:42;;;;;;;5.32;4.20;;;13.60;99.90;;;;;;4827181;29;20230;-85
2022/10/15 03:52:08;;;;;;;8.25;4.88;;;13.50;99.90;;;;;;4826834;29;20193;-85
2022/10/15 03:54:35;;;;;;;6.43;5.20;;;13.60;99.90;;;;;;4842218;29;20874;-84
2022/10/15 03:57:11;;;;;;;7.57;4.82;;;13.60;99.90;;;;;;4842027;29;20521;-85
2022/10/15 03:59:37;;;;;;;8.00;4.57;;;13.60;99.90;;;;;;4828639;29;20196;-85
2022/10/15 04:02:03;;;;;;;6.65;4.88;;;13.50;99.90;;;;;;4843502;29;20181;-85
2022/10/15 04:04:31;;;;;;;6.05;4.40;;;13.50;99.90;;;;;;4827087;29;20217;-85
2022/10/15 04:06:58;;;;;;;5.32;4.15;;;13.50;99.90;;;;;;4843459;29;20178;-84
2022/10/15 04:09:25;;;;;;;7.90;5.28;;;13.50;99.90;;;;;;4842338;29;20201;-85
2022/10/15 04:11:52;;;;;;;7.13;4.43;;;13.40;99.90;;;;;;4841567;29;20200;-85
2022/10/15 04:14:20;;;;;;;6.32;4.40;;;13.40;99.90;;;;;;4841804;29;20306;-85
2022/10/15 04:16:46;;;;;;;7.05;4.78;;;13.40;99.90;;;;;;4843005;29;20193;-85
2022/10/15 04:19:11;;;;;;;4.97;4.18;;;13.40;99.90;;;;;;4843239;29;20177;-85
2022/10/15 04:21:37;;;;;;;4.57;4.15;;;13.30;99.90;;;;;;4842090;29;20200;-85
2022/10/15 04:24:03;;;;;;;6.68;4.70;;;13.30;99.90;;;;;;4841929;29;20680;-85
2022/10/15 04:26:29;;;;;;;6.15;4.97;;;13.30;99.90;;;;;;4841631;29;20193;-84
2022/10/15 04:28:56;;;;;;;6.82;5.00;;;13.20;99.90;;;;;;4826487;29;20224;-85
2022/10/15 04:31:22;;;;;;;6.55;4.78;;;13.10;99.90;;;;;;4841981;29;20193;-85
2022/10/15 04:33:48;;;;;;;6.25;5.25;;;13.10;99.90;;;;;;4842982;29;20189;-85
2022/10/15 04:36:14;;;;;;;6.85;5.07;;;13.00;99.90;;;;;;4842947;29;20177;-85
2022/10/15 04:38:40;;;;;;;7.88;5.05;;;13.00;99.90;;;;;;4843065;29;20173;-85
2022/10/15 04:41:09;;;;;;;6.50;5.15;;;13.00;99.90;;;;;;4826334;29;20240;-85
2022/10/15 04:43:35;;;;;;;7.50;5.45;;;13.00;99.90;;;;;;4826324;29;20213;-84
2022/10/15 04:46:03;;;;;;;6.40;5.40;;;13.00;99.90;;;;;;4842787;29;20182;-83
2022/10/15 04:48:31;;;;;;;6.22;5.32;;;13.00;99.90;;;;;;4838911;29;20217;-84
2022/10/15 04:51:12;;;;;;;9.00;5.30;;;13.00;99.90;;;;;;4842965;29;20617;-84
2022/10/15 04:53:38;;;;;;;6.72;5.53;;;13.00;99.90;;;;;;4856047;29;20329;-84
2022/10/15 04:56:08;;;;;;;7.10;5.00;;;12.80;99.90;;;;;;4840676;29;20281;-84
2022/10/15 04:58:35;;;;;;;6.03;4.47;;;12.80;99.90;;;;;;4824699;29;20182;-84
2022/10/15 05:01:07;;;;;;;6.45;4.78;;;12.80;99.90;;;;;;4833252;29;20185;-84
2022/10/15 05:03:35;;;;;;;5.95;5.25;;;12.80;99.90;;;;;;4842170;29;20213;-84
2022/10/15 05:06:03;;;;;;;6.43;4.85;;;12.80;99.90;;;;;;4842798;29;20178;-84
2022/10/15 05:08:30;;;;;;;7.55;4.90;;;12.70;99.90;;;;;;4842907;29;20182;-85
2022/10/15 05:11:03;;;;;;;7.97;5.70;;;12.60;99.90;;;;;;4826521;29;20189;-85
2022/10/15 05:13:32;;;;;;;5.85;4.28;;;12.60;99.90;;;;;;4826416;29;20602;-85
2022/10/15 05:16:12;;;;;;;6.25;4.50;;;12.60;99.90;;;;;;4842710;29;20256;-85
2022/10/15 05:18:38;;;;;;;6.93;4.85;;;12.60;99.90;;;;;;4826285;29;20273;-84
2022/10/15 05:21:04;;;;;;;6.50;4.10;;;12.60;99.90;;;;;;4826766;29;20185;-84
2022/10/15 05:23:30;;;;;;;5.78;4.85;;;12.60;99.90;;;;;;4845754;29;20269;-85
2022/10/15 05:26:00;;;;;;;6.72;5.05;;;12.50;99.90;;;;;;4828629;29;20291;-85
2022/10/15 05:28:26;;;;;;;7.07;4.93;;;12.50;99.90;;;;;;4845608;29;20181;-84
2022/10/15 05:30:52;;;;;;;6.57;5.22;;;12.50;99.90;;;;;;4845873;29;20184;-84
2022/10/15 05:33:17;;;;;;;7.88;5.20;;;12.50;99.90;;;;;;4845767;29;20632;-84
2022/10/15 05:35:43;;;;;;;5.93;5.20;;;12.50;99.90;;;;;;4831444;29;20535;-85
2022/10/15 05:38:09;;;;;;;5.50;4.75;;;12.60;99.90;;;;;;4845929;29;20518;-85
2022/10/15 05:40:34;;;;;;;5.72;4.22;;;12.60;99.90;;;;;;4859603;29;20385;-84
2022/10/15 05:43:00;;;;;;;6.20;4.82;;;12.60;99.90;;;;;;4842586;29;20192;-84
2022/10/15 05:45:27;;;;;;;6.88;4.68;;;12.60;99.90;;;;;;4845668;29;20618;-84
2022/10/15 05:47:54;;;;;;;7.47;5.05;;;12.50;99.90;;;;;;4844913;29;20189;-84
2022/10/15 05:50:22;;;;;;;6.45;4.95;;;12.50;99.90;;;;;;4845502;29;20182;-84
2022/10/15 05:52:48;;;;;;;5.55;4.68;;;12.50;99.90;;;;;;4845466;29;20496;-84
2022/10/15 05:55:15;;;;;;;5.38;4.32;;;12.50;99.90;;;;;;4844186;29;20193;-84
2022/10/15 05:57:41;;;;;;;7.00;4.95;;;12.50;99.90;;;;;;4840634;29;20608;-84
2022/10/15 06:00:07;;;;;;;6.13;4.60;;;12.40;99.90;;;;;;4828863;29;20185;-85
2022/10/15 06:02:34;;;;;;;8.60;5.35;;;12.50;99.90;;;;;;4828435;29;20201;-84
2022/10/15 06:05:00;;;;;;;6.13;4.75;;;12.50;99.90;;;;;;4845245;29;20225;-85
2022/10/15 06:07:26;;;;;;;5.95;5.22;;;12.50;99.90;;;;;;4828710;29;20200;-84
2022/10/15 06:09:52;;;;;;;8.13;4.40;;;12.50;99.90;;;;;;4844111;29;20186;-84
2022/10/15 06:12:18;;;;;;;5.60;4.90;;;12.50;99.90;;;;;;4843262;29;20193;-84
2022/10/15 06:14:43;;;;;;;6.55;5.10;;;12.50;99.90;;;;;;4828580;29;20249;-85
2022/10/15 06:17:09;;;;;;;9.10;5.82;;;12.50;99.90;;;;;;4828485;29;20181;-84
2022/10/15 06:19:35;;;;;;;6.30;5.57;;;12.50;99.90;;;;;;4828634;29;20193;-84
2022/10/15 06:22:00;;;;;;;8.43;5.35;;;12.50;99.90;;;;;;4828375;29;20181;-85
2022/10/15 06:24:26;;;;;;;11.15;5.70;;;12.50;99.90;;;;;;4828388;29;20340;-84
2022/10/15 06:26:53;;;;;;;8.30;5.82;;;12.50;99.90;;;;;;4853936;29;20192;-84
2022/10/15 06:29:19;;;;;;;9.55;5.72;;;12.60;99.90;;;;;;4843996;29;20200;-84
2022/10/15 06:31:44;;;;;;;7.57;5.50;;;12.50;99.90;;;;;;4828167;29;20189;-84
2022/10/15 06:34:10;;;;;;;8.90;5.85;;;12.50;99.90;;;;;;4843716;29;20217;-84
2022/10/15 06:36:36;;;;;;;6.45;5.45;;;12.60;99.90;;;;;;4846035;29;20184;-83
2022/10/15 06:39:03;;;;;;;7.80;5.65;;;12.60;99.90;;;;;;4844421;29;20185;-83
2022/10/15 06:41:29;;;;;;;9.50;6.10;;;12.60;99.90;;;;;;4843867;29;20253;-84
2022/10/15 06:43:59;;;;;;;7.80;5.75;;;12.70;99.90;;;;;;4829785;29;20256;-84
2022/10/15 06:46:26;;;;;;;12.10;6.20;;;12.70;99.90;;;;;;4826256;29;20185;-84
2022/10/15 06:48:54;;;;;;;8.23;6.57;;;12.70;99.90;;;;;;4843638;29;20200;-83
2022/10/15 06:51:26;;;;;;;7.70;6.25;;;12.70;99.90;;;;;;4827467;29;20520;-84
2022/10/15 06:53:52;;;;;;;8.88;6.68;;;12.70;99.90;;;;;;4843097;29;20189;-84
2022/10/15 06:56:24;;;;;;;6.68;5.60;;;12.80;99.90;;;;;;4841988;29;20181;-84
2022/10/15 06:58:59;;;;;;;7.57;5.95;;;12.80;99.90;;;;;;4842760;29;20325;-84
2022/10/15 07:01:29;;;;;;;7.72;5.95;;;12.80;99.90;;;;;;4821270;29;20531;-84
2022/10/15 07:04:06;;;;;;;9.82;6.70;;;12.80;99.90;;;;;;4843811;29;20201;-84
2022/10/15 07:06:40;;;;;;;8.82;6.57;;;12.80;99.90;;;;;;4827196;29;20192;-83
2022/10/15 07:09:07;;;;;;;8.80;7.38;;;12.80;99.90;;;;;;4827580;29;20193;-84
2022/10/15 07:11:34;;;;;;;11.98;7.88;;;12.80;99.90;;;;;;4843263;29;20180;-84
2022/10/15 07:14:01;;;;;;;10.32;7.20;;;12.90;99.90;;;;;;4843244;29;20224;-84
2022/10/15 07:16:33;;;;;;;11.15;7.60;;;12.90;99.90;;;;;;4842621;29;20264;-84
2022/10/15 07:19:13;;;;;;;11.15;7.90;;;12.90;99.90;;;;;;4843849;29;20200;-85
2022/10/15 07:21:54;;;;;;;13.05;9.13;;;13.00;99.90;;;;;;4842751;29;20181;-85
2022/10/15 07:24:21;;;;;;;20.00;13.73;;;13.00;99.90;;;;;;4843646;29;20701;-85
2022/10/15 07:26:47;;;;;;;13.15;9.95;;;13.10;99.90;;;;;;4843727;29;20166;-84
2022/10/15 07:29:18;;;;;;;14.70;10.25;;;13.10;99.90;;;;;;4843324;29;20197;-84
2022/10/15 07:31:54;;;;;;;14.75;8.77;;;13.20;99.90;;;;;;4826963;29;20181;-84
2022/10/15 07:34:21;;;;;;;12.73;8.55;;;13.30;99.90;;;;;;4821064;29;20196;-85
2022/10/15 07:37:15;;;;;;;12.38;8.75;;;13.40;99.90;;;;;;4843346;29;20202;-85
2022/10/15 07:39:40;;;;;;;10.35;7.97;;;13.40;99.90;;;;;;4859254;29;20689;-84
2022/10/15 07:42:17;;;;;;;11.80;9.00;;;13.40;99.90;;;;;;4841382;29;20229;-85
2022/10/15 07:44:48;;;;;;;14.20;10.15;;;13.50;99.90;;;;;;4843095;29;20213;-85
2022/10/15 07:47:14;;;;;;;21.17;13.55;;;13.60;99.90;;;;;;4826604;29;20205;-85
2022/10/15 07:49:40;;;;;;;18.40;12.50;;;13.60;99.90;;;;;;4843038;29;20232;-85
2022/10/15 07:52:09;;;;;;;18.90;12.48;;;13.70;99.90;;;;;;4842972;29;20188;-84
2022/10/15 07:54:36;;;;;;;18.10;12.35;;;13.70;99.90;;;;;;4842106;29;20208;-85
2022/10/15 07:57:05;;;;;;;17.05;12.07;;;13.80;99.90;;;;;;4843027;29;20215;-85
2022/10/15 07:59:32;;;;;;;20.80;13.45;;;13.80;99.90;;;;;;4841393;29;20268;-85
2022/10/15 08:02:23;;;;;;;20.85;12.43;;;13.80;99.90;;;;;;4826519;29;20527;-84
2022/10/15 08:04:50;;;;;;;22.85;14.10;;;13.90;99.90;;;;;;4843035;29;20220;-85
2022/10/15 08:07:16;;;;;;;25.73;15.98;;;14.00;99.90;;;;;;4842641;29;20170;-85
2022/10/15 08:09:43;;;;;;;26.52;16.38;;;14.00;99.90;;;;;;4827096;29;20242;-85
2022/10/15 08:12:09;;;;;;;24.98;16.45;;;14.00;99.90;;;;;;4826406;29;20208;-85
2022/10/15 08:14:41;;;;;;;22.80;14.25;;;14.10;99.90;;;;;;4843234;29;20195;-85
2022/10/15 08:17:11;;;;;;;26.40;14.90;;;14.10;99.90;;;;;;4843038;29;20173;-84
2022/10/15 08:19:44;;;;;;;28.20;15.75;;;14.10;99.90;;;;;;4843066;29;20571;-84
2022/10/15 08:22:11;;;;;;;20.98;14.52;;;14.20;99.90;;;;;;4841949;29;20181;-85
2022/10/15 08:24:37;;;;;;;25.45;15.63;;;14.20;99.90;;;;;;4826633;29;20216;-84
2022/10/15 08:27:04;;;;;;;22.67;15.65;;;14.20;99.90;;;;;;4842485;29;20185;-84
2022/10/15 08:29:30;;;;;;;24.90;16.42;;;14.20;99.90;;;;;;4842713;29;20178;-84
2022/10/15 08:31:55;;;;;;;24.85;15.90;;;14.30;99.90;;;;;;4826699;29;20257;-84
2022/10/15 08:34:21;;;;;;;21.75;13.27;;;14.30;99.90;;;;;;4842437;29;20188;-85
2022/10/15 08:36:47;;;;;;;26.55;15.50;;;14.40;99.90;;;;;;4826422;29;21036;-85
2022/10/15 08:39:13;;;;;;;25.77;14.93;;;14.40;99.90;;;;;;4825362;29;20189;-85
2022/10/15 08:41:44;;;;;;;24.63;15.95;;;14.60;99.90;;;;;;4826248;29;20233;-85
2022/10/15 08:44:50;;;;;;;24.33;15.68;;;14.70;99.90;;;;;;4842572;29;20209;-84
2022/10/15 08:47:49;;;;;;;23.88;13.93;;;14.70;99.90;;;;;;4835537;29;20203;-84
2022/10/15 08:50:41;;;;;;;23.35;14.95;;;14.80;99.90;;;;;;4842663;29;20196;-84
2022/10/15 08:53:20;;;;;;;22.67;14.23;;;14.80;99.90;;;;;;4828365;29;20193;-84
2022/10/15 08:55:52;;;;;;;22.50;14.50;;;14.90;99.90;;;;;;4841223;29;20208;-84
2022/10/15 08:58:29;;;;;;;22.45;14.55;;;14.90;99.90;;;;;;4812122;29;20185;-84
2022/10/15 09:01:15;;;;;;;17.20;11.45;;;15.00;99.90;;;;;;4844700;29;20497;-83
2022/10/15 09:04:01;;;;;;;24.25;15.18;;;15.10;99.90;;;;;;4845567;29;20238;-84
2022/10/15 09:06:37;;;;;;;23.05;15.18;;;15.10;99.90;;;;;;4844909;29;20552;-84
2022/10/15 09:09:37;;;;;;;21.83;14.98;;;15.10;99.90;;;;;;4844744;29;20189;-83
2022/10/15 09:12:06;;;;;;;21.33;13.40;;;15.30;99.90;;;;;;4844651;29;20189;-83
2022/10/15 09:14:39;;;;;;;20.90;13.90;;;15.30;99.90;;;;;;4845621;29;20177;-84
2022/10/15 09:17:16;;;;;;;26.67;15.55;;;15.30;99.90;;;;;;4845435;29;20181;-84
2022/10/15 09:19:43;;;;;;;20.98;14.43;;;15.30;99.90;;;;;;4859884;29;20181;-84
2022/10/15 09:22:15;;;;;;;21.08;13.48;;;15.40;99.90;;;;;;4845715;29;20575;-83
2022/10/15 09:24:41;;;;;;;19.38;13.63;;;15.50;99.90;;;;;;4829032;29;20217;-84
2022/10/15 09:27:34;;;;;;;20.23;13.77;;;15.60;99.90;;;;;;4829240;29;20196;-84
2022/10/15 09:30:34;;;;;;;19.63;14.10;;;15.70;99.90;;;;;;4829267;29;20230;-84
2022/10/15 09:33:37;;;;;;;17.77;12.90;;;15.80;99.90;;;;;;4845641;29;20217;-84
2022/10/15 09:36:23;;;;;;;19.00;13.57;;;15.70;99.90;;;;;;4829150;29;20185;-83
2022/10/15 09:39:16;;;;;;;19.75;12.57;;;15.70;99.90;;;;;;4843937;29;20514;-84
2022/10/15 09:42:21;;;;;;;17.80;12.60;;;15.80;99.90;;;;;;4843769;29;20233;-84
2022/10/15 09:45:04;;;;;;;15.77;11.85;;;15.80;99.90;;;;;;4819320;29;20213;-83
2022/10/15 09:47:45;;;;;;;17.65;12.70;;;15.80;99.90;;;;;;4827825;29;20185;-83
2022/10/15 09:50:14;;;;;;;20.20;12.88;;;15.80;99.90;;;;;;4828482;29;20273;-85
2022/10/15 09:52:50;;;;;;;19.25;13.90;;;15.80;99.90;;;;;;4823411;29;20189;-83
2022/10/15 09:55:34;;;;;;;16.52;12.90;;;15.80;99.90;;;;;;4826206;29;20190;-83
2022/10/15 09:58:26;;;;;;;42.42;15.75;;;15.90;99.90;;;;;;4825660;29;20536;-84
2022/10/15 10:00:57;;;;;;;22.13;13.40;;;15.90;99.90;;;;;;4826883;29;20564;-85
2022/10/15 10:03:25;;;;;;;17.00;12.75;;;15.80;99.90;;;;;;4825823;29;20202;-86
2022/10/15 10:06:02;;;;;;;17.52;13.02;;;15.80;99.90;;;;;;4841322;29;20238;-86
2022/10/15 10:08:55;;;;;;;19.80;12.98;;;15.80;99.90;;;;;;4843878;29;20177;-85
2022/10/15 10:11:23;;;;;;;16.45;12.80;;;15.90;99.90;;;;;;4817332;29;20197;-88
2022/10/15 10:13:58;;;;;;;19.80;12.65;;;16.00;99.90;;;;;;4828406;29;20193;-87
2022/10/15 10:16:25;;;;;;;16.58;12.68;;;16.20;99.90;;;;;;4829007;29;20250;-85
2022/10/15 10:19:04;;;;;;;17.67;12.15;;;16.30;99.90;;;;;;4812626;29;20178;-85
2022/10/15 10:21:31;;;;;;;18.73;12.13;;;16.50;99.90;;;;;;4845182;29;20185;-86
2022/10/15 10:24:17;;;;;;;14.98;11.32;;;16.60;99.90;;;;;;4828113;29;20213;-84
2022/10/15 10:26:44;;;;;;;14.70;11.77;;;16.80;99.90;;;;;;4827373;29;20197;-86
2022/10/15 10:29:32;;;;;;;19.20;11.93;;;16.90;99.90;;;;;;4827002;29;20212;-84
2022/10/15 10:31:58;;;;;;;18.02;10.98;;;17.00;99.90;;;;;;4838746;29;20201;-85
2022/10/15 10:34:30;;;;;;;14.98;11.55;;;17.20;99.90;;;;;;4844688;29;20193;-85
2022/10/15 10:37:01;;;;;;;12.73;9.90;;;17.30;99.90;;;;;;4827576;29;20197;-84
2022/10/15 10:39:29;;;;;;;13.73;11.23;;;17.20;99.90;;;;;;4843474;29;20224;-85
2022/10/15 10:41:56;;;;;;;14.48;10.50;;;17.20;99.90;;;;;;4842383;29;20237;-85
2022/10/15 10:44:35;;;;;;;15.52;11.05;;;17.20;99.90;;;;;;4844645;29;20217;-84
2022/10/15 10:47:07;;;;;;;15.05;11.98;;;17.10;99.90;;;;;;4828338;29;20185;-84
2022/10/15 10:49:35;;;;;;;17.15;11.82;;;17.00;99.90;;;;;;4843247;29;20619;-84
2022/10/15 10:52:02;;;;;;;16.15;11.80;;;16.90;99.90;;;;;;4827965;29;20280;-86
2022/10/15 10:54:31;;;;;;;15.02;11.30;;;16.80;99.90;;;;;;4843857;29;20269;-85
2022/10/15 10:57:03;;;;;;;15.95;11.52;;;16.70;99.90;;;;;;4844177;29;20620;-85
2022/10/15 10:59:35;;;;;;;16.27;11.15;;;16.70;99.90;;;;;;4844258;29;20216;-85
2022/10/15 11:02:03;;;;;;;15.07;11.02;;;16.60;99.90;;;;;;4827875;29;20185;-84
2022/10/15 11:04:35;;;;;;;13.38;11.18;;;16.70;99.90;;;;;;4843956;29;20223;-86
2022/10/15 11:07:03;;;;;;;14.07;10.65;;;16.80;99.90;;;;;;4828126;29;20280;-85
2022/10/15 11:09:48;;;;;;;13.55;9.93;;;17.00;99.90;;;;;;4843934;29;20182;-86
2022/10/15 11:12:29;;;;;;;12.10;9.68;;;17.10;99.90;;;;;;4844831;29;20193;-85
2022/10/15 11:15:07;;;;;;;11.40;9.32;;;17.10;99.90;;;;;;4844161;29;20180;-85
2022/10/15 11:17:45;;;;;;;13.60;9.35;;;17.20;99.90;;;;;;4834246;29;20218;-84
2022/10/15 11:20:19;;;;;;;15.75;9.60;;;17.40;99.90;;;;;;4845037;29;20629;-84
2022/10/15 11:23:23;;;;;;;13.02;9.90;;;17.60;99.90;;;;;;4837384;29;20663;-84
2022/10/15 11:26:09;;;;;;;14.20;9.20;;;17.90;99.90;;;;;;4829700;29;20220;-85
2022/10/15 11:28:58;;;;;;;11.23;8.95;;;18.20;99.90;;;;;;4842383;29;20532;-84
2022/10/15 11:31:26;;;;;;;12.50;8.60;;;18.40;99.90;;;;;;4825783;29;20602;-84
2022/10/15 11:34:13;;;;;;;12.77;8.68;;;18.40;99.90;;;;;;4842060;29;20223;-85
2022/10/15 11:37:03;;;;;;;13.32;8.55;;;18.50;99.90;;;;;;4842126;29;20178;-85
2022/10/15 11:39:41;;;;;;;12.38;7.95;;;18.70;99.90;;;;;;4849994;29;20220;-84
2022/10/15 11:42:31;;;;;;;10.35;7.10;;;18.50;99.90;;;;;;4842238;29;20260;-85
2022/10/15 11:45:34;;;;;;;10.85;7.03;;;18.30;99.90;;;;;;4849258;29;20668;-88
2022/10/15 11:48:08;;;;;;;8.80;5.93;;;18.30;99.90;;;;;;4844394;29;20219;-86
2022/10/15 11:50:50;;;;;;;10.75;6.25;;;18.30;99.90;;;;;;4841492;29;20248;-84
2022/10/15 11:53:48;;;;;;;8.23;6.28;;;18.30;99.90;;;;;;4822234;29;20641;-84
2022/10/15 11:56:36;;;;;;;10.93;6.82;;;18.30;99.90;;;;;;4833456;29;20649;-83
2022/10/15 11:59:32;;;;;;;10.00;5.82;;;18.40;99.90;;;;;;4821593;29;20193;-85
2022/10/15 12:02:12;;;;;;;6.68;5.53;;;18.50;99.90;;;;;;4840141;29;20196;-85
2022/10/15 12:04:44;;;;;;;9.70;6.10;;;18.60;99.90;;;;;;4831635;29;20668;-86
2022/10/15 12:07:17;;;;;;;8.45;4.85;;;18.70;99.90;;;;;;4832967;29;20196;-84
2022/10/15 12:09:48;;;;;;;6.10;4.38;;;18.80;99.90;;;;;;4841448;29;20193;-86
2022/10/15 12:12:25;;;;;;;7.28;4.65;;;18.60;99.90;;;;;;4837265;29;20224;-84
2022/10/15 12:15:28;;;;;;;9.73;4.80;;;18.30;99.90;;;;;;4849012;29;20284;-85
2022/10/15 12:18:35;;;;;;;9.07;4.97;;;18.20;99.90;;;;;;4842289;29;20185;-85
2022/10/15 12:21:01;;;;;;;5.53;4.55;;;17.90;99.90;;;;;;4833273;29;20665;-84
2022/10/15 12:23:35;;;;;;;6.68;4.63;;;18.10;99.90;;;;;;4841727;29;20189;-85
2022/10/15 12:26:21;;;;;;;4.22;3.70;;;18.40;99.90;;;;;;4838460;29;20197;-85
2022/10/15 12:28:53;;;;;;;4.63;3.20;;;18.60;99.90;;;;;;4833457;29;20219;-86
2022/10/15 12:31:20;;;;;;;3.65;2.95;;;18.40;99.90;;;;;;4839250;29;20540;-87
2022/10/15 12:33:49;;;;;;;3.35;2.80;;;18.20;99.90;;;;;;4840898;29;20198;-84
2022/10/15 12:36:18;;;;;;;2.35;2.15;;;18.00;99.90;;;;;;4836803;29;20582;-84
2022/10/15 12:39:23;;;;;;;2.50;1.98;;;18.10;99.90;;;;;;4842233;29;20185;-85
2022/10/15 12:41:49;;;;;;;2.70;1.90;;;18.30;99.90;;;;;;4840114;29;20664;-84
2022/10/15 12:44:20;;;;;;;3.72;1.48;;;18.60;99.90;;;;;;4842647;29;20216;-86
2022/10/15 12:46:47;;;;;;;1.80;1.27;;;18.90;99.90;;;;;;4856203;29;20192;-83
2022/10/15 12:49:33;;;;;;;4.93;1.20;;;19.00;99.90;;;;;;4841449;29;20204;-85
2022/10/15 12:52:01;;;;;;;3.40;1.33;;;19.10;99.90;;;;;;4842371;29;20231;-87
2022/10/15 12:54:37;;;;;;;1.90;1.42;;;18.90;99.90;;;;;;4841343;29;20193;-84
2022/10/15 12:57:35;;;;;;;2.30;1.50;;;18.60;99.90;;;;;;4840161;29;20237;-83
2022/10/15 13:00:22;;;;;;;2.95;1.30;;;18.60;99.90;;;;;;4842711;29;20201;-85
2022/10/15 13:02:49;;;;;;;2.67;1.20;;;18.90;99.90;;;;;;4841685;29;20212;-86
2022/10/15 13:05:32;;;;;;;2.85;1.35;;;19.20;99.90;;;;;;4840783;29;20281;-84
2022/10/15 13:08:04;;;;;;;2.25;1.45;;;18.90;99.90;;;;;;4841871;29;20617;-85
2022/10/15 13:10:46;;;;;;;1.42;1.33;;;18.90;99.90;;;;;;4841813;29;20538;-84